Time;durP1;ratioP1;P1;durP2;ratioP2;P2;SDS_P1;SDS_P2;PMS_P1;PMS_P2;Temp;Humidity;BMP_temperature;BMP_pressure;BME280_temperature;BME280_humidity;BME280_pressure;Samples;Min_cycle;Max_cycle;Signal;HPM_P1;HPM_P2
2021/10/01 00:02:17;;;;;;;42.80;20.48;;;;;;;6.55;99.00;100265.02;4215998;83;21043;-83
2021/10/01 00:08:18;;;;;;;50.63;20.45;;;;;;;6.50;99.05;100265.75;4237640;82;21010;-82
2021/10/01 00:14:26;;;;;;;34.88;18.20;;;;;;;6.52;99.60;100266.20;4345702;80;21628;-82
2021/10/01 00:20:27;;;;;;;35.43;18.00;;;;;;;6.48;99.09;100266.61;4350279;79;20987;-83
2021/10/01 00:26:28;;;;;;;40.05;17.02;;;;;;;6.35;98.90;100261.55;4424137;78;21927;-83
2021/10/01 00:32:31;;;;;;;29.48;16.30;;;;;;;6.34;99.65;100263.45;4434762;78;21003;-82
2021/10/01 00:38:33;;;;;;;48.60;18.10;;;;;;;6.48;99.78;100256.55;4417817;78;21029;-82
2021/10/01 00:44:34;;;;;;;42.00;18.40;;;;;;;6.35;99.12;100258.83;4431878;78;21066;-82
2021/10/01 00:50:35;;;;;;;37.75;17.17;;;;;;;6.28;99.12;100244.88;4436939;78;21610;-82
2021/10/01 00:56:38;;;;;;;34.43;17.23;;;;;;;6.22;99.21;100248.31;4432603;78;20972;-83
2021/10/01 01:02:41;;;;;;;32.48;16.97;;;;;;;6.12;98.96;100248.59;4425760;78;21970;-83
2021/10/01 01:09:17;;;;;;;32.40;17.17;;;;;;;6.39;100.00;100255.70;4411428;78;21081;-83
2021/10/01 01:15:23;;;;;;;29.77;15.95;;;;;;;6.58;100.00;100241.26;4329966;80;21032;-84
2021/10/01 01:21:57;;;;;;;31.00;15.93;;;;;;;6.45;99.24;100243.58;4319882;80;22261;-84
2021/10/01 01:28:33;;;;;;;27.37;15.88;;;;;;;6.25;99.57;100240.08;4279702;82;21035;-82
2021/10/01 01:34:39;;;;;;;35.20;16.40;;;;;;;6.31;100.00;100241.55;4270266;82;21054;-83
2021/10/01 01:40:47;;;;;;;31.62;16.37;;;;;;;6.25;99.52;100243.60;4274693;82;21617;-83
2021/10/01 01:46:49;;;;;;;37.28;16.65;;;;;;;6.09;100.00;100241.07;4252313;81;21041;-83
2021/10/01 01:52:53;;;;;;;33.25;15.53;;;;;;;6.32;100.00;100243.95;4258152;82;21035;-83
2021/10/01 01:58:54;;;;;;;27.85;15.35;;;;;;;6.49;100.00;100249.98;4250122;82;21055;-83
2021/10/01 02:04:59;;;;;;;34.43;16.05;;;;;;;6.64;100.00;100252.23;4249084;82;21030;-82
2021/10/01 02:11:00;;;;;;;31.68;14.43;;;;;;;6.55;99.90;100254.69;4367644;80;20983;-83
2021/10/01 02:17:04;;;;;;;36.80;16.35;;;;;;;6.31;99.54;100253.79;4354834;80;21030;-83
2021/10/01 02:23:06;;;;;;;31.52;14.63;;;;;;;6.24;100.00;100258.33;4396550;78;21060;-83
2021/10/01 02:29:23;;;;;;;38.35;15.78;;;;;;;6.17;100.00;100258.55;4424658;78;21053;-83
2021/10/01 02:35:25;;;;;;;34.45;14.80;;;;;;;6.02;99.75;100263.84;4429394;78;21028;-83
2021/10/01 02:41:28;;;;;;;31.42;14.43;;;;;;;6.14;100.00;100265.95;4425101;78;21492;-83
2021/10/01 02:47:33;;;;;;;24.10;14.90;;;;;;;6.32;100.00;100264.90;4255482;78;37374;-83
2021/10/01 02:53:55;;;;;;;24.55;14.93;;;;;;;6.42;100.00;100263.26;4217181;82;23327;-83
2021/10/01 03:00:00;;;;;;;20.80;13.48;;;;;;;6.30;99.93;100268.48;4255698;82;21030;-83
2021/10/01 03:06:03;;;;;;;20.72;12.55;;;;;;;6.14;99.75;100261.88;4226147;82;21058;-84
2021/10/01 03:12:06;;;;;;;22.67;13.00;;;;;;;6.07;100.00;100250.13;4258784;82;20978;-83
2021/10/01 03:18:09;;;;;;;22.95;13.78;;;;;;;5.97;99.54;100255.02;4237964;82;21109;-83
2021/10/01 03:24:12;;;;;;;20.43;13.72;;;;;;;5.85;99.71;100248.84;4249581;82;21606;-84
2021/10/01 03:30:13;;;;;;;20.17;12.23;;;;;;;5.96;100.00;100244.72;4246664;82;21085;-84
2021/10/01 03:36:15;;;;;;;33.85;14.80;;;;;;;6.06;100.00;100241.70;4269517;82;21105;-85
2021/10/01 03:42:18;;;;;;;28.52;15.50;;;;;;;5.83;99.31;100229.86;4259663;82;21008;-83
2021/10/01 03:48:21;;;;;;;37.05;14.47;;;;;;;5.63;99.32;100227.13;4205859;83;21020;-85
2021/10/01 03:54:30;;;;;;;27.52;12.63;;;;;;;5.48;99.44;100224.79;4191954;83;22257;-84
2021/10/01 04:00:31;;;;;;;18.33;11.30;;;;;;;5.37;99.49;100213.95;4196120;83;21080;-84
2021/10/01 04:06:35;;;;;;;20.45;12.20;;;;;;;5.41;100.00;100211.42;4204405;83;21774;-84
2021/10/01 04:12:38;;;;;;;23.47;12.95;;;;;;;5.64;100.00;100204.27;4207261;83;22117;-83
2021/10/01 04:18:41;;;;;;;16.67;11.57;;;;;;;5.81;100.00;100201.61;4198112;83;21070;-83
2021/10/01 04:24:42;;;;;;;19.43;11.63;;;;;;;5.87;100.00;100207.17;4206728;83;21109;-84
2021/10/01 04:30:48;;;;;;;17.27;10.98;;;;;;;5.92;100.00;100208.40;4209027;83;21044;-84
2021/10/01 04:36:48;;;;;;;15.63;11.03;;;;;;;5.96;100.00;100207.22;4197404;83;21078;-83
2021/10/01 04:42:50;;;;;;;22.48;10.15;;;;;;;5.56;98.88;100214.53;4206155;83;21633;-84
2021/10/01 04:48:51;;;;;;;38.02;12.95;;;;;;;5.48;100.00;100215.28;4214973;83;21037;-84
2021/10/01 04:54:57;;;;;;;25.17;12.43;;;;;;;5.37;99.28;100218.02;4204920;83;21039;-83
2021/10/01 05:01:04;;;;;;;38.80;13.83;;;;;;;5.24;99.57;100218.11;4200271;83;42088;-85
2021/10/01 05:07:24;;;;;;;43.33;12.95;;;;;;;5.30;100.00;100222.30;4190968;83;21089;-84
2021/10/01 05:13:44;;;;;;;52.60;13.05;;;;;;;5.13;99.70;100221.64;4190704;83;21034;-84
2021/10/01 05:20:10;;;;;;;20.80;12.88;;;;;;;5.03;99.26;100225.17;4191441;83;21037;-84
2021/10/01 05:26:13;;;;;;;28.73;10.50;;;;;;;4.97;99.69;100226.38;4154914;83;21527;-83
2021/10/01 05:32:15;;;;;;;68.87;11.25;;;;;;;5.14;99.88;100229.24;4139154;84;21053;-84
2021/10/01 05:38:17;;;;;;;17.27;11.10;;;;;;;5.02;99.53;100232.50;4136672;84;21594;-84
2021/10/01 05:44:18;;;;;;;32.75;10.28;;;;;;;5.03;99.84;100236.03;4139977;84;21133;-83
2021/10/01 05:50:24;;;;;;;26.25;11.28;;;;;;;4.86;99.53;100235.32;4150829;84;21672;-83
2021/10/01 05:57:01;;;;;;;27.52;10.70;;;;;;;4.60;100.00;100244.59;4069390;84;21658;-84
2021/10/01 06:03:04;;;;;;;24.82;10.45;;;;;;;4.55;100.00;100247.44;4136709;84;21019;-83
2021/10/01 06:09:09;;;;;;;25.90;11.95;;;;;;;4.49;100.00;100245.13;4123093;84;20983;-83
2021/10/01 06:15:10;;;;;;;22.82;12.75;;;;;;;4.67;100.00;100249.59;4130944;84;21115;-83
2021/10/01 06:21:11;;;;;;;25.50;13.70;;;;;;;5.05;100.00;100244.09;4132401;84;21555;-83
2021/10/01 06:27:15;;;;;;;27.22;13.50;;;;;;;5.33;100.00;100250.18;4173948;84;21173;-83
2021/10/01 06:33:16;;;;;;;20.05;12.63;;;;;;;5.46;100.00;100248.77;4178584;84;21020;-83
2021/10/01 06:39:39;;;;;;;31.80;14.45;;;;;;;5.65;100.00;100249.91;3957997;88;21131;-83
2021/10/01 06:45:43;;;;;;;31.85;15.20;;;;;;;5.95;100.00;100247.17;3972060;88;21064;-84
2021/10/01 06:52:20;;;;;;;24.37;14.70;;;;;;;6.09;100.00;100250.59;3957111;88;21702;-84
2021/10/01 08:20:12;;;;;;;24.52;15.50;;;;;;;10.12;100.00;100205.42;4035298;86;21543;-83
2021/10/01 08:26:13;;;;;;;19.92;15.30;;;;;;;10.43;100.00;100196.04;4034133;86;21000;-82
2021/10/01 08:32:14;;;;;;;23.30;14.65;;;;;;;10.91;100.00;100192.39;4040431;86;21067;-83
2021/10/01 08:38:16;;;;;;;17.57;11.70;;;;;;;11.60;100.00;100190.55;4025619;86;21092;-83
2021/10/01 08:44:18;;;;;;;15.50;10.38;;;;;;;12.36;100.00;100177.95;4016803;86;21045;-82
2021/10/01 08:50:21;;;;;;;14.75;10.75;;;;;;;13.18;100.00;100174.98;4027148;86;21057;-82
2021/10/01 08:56:25;;;;;;;13.48;9.70;;;;;;;14.01;100.00;100171.56;4024981;86;21072;-83
2021/10/01 09:02:26;;;;;;;18.40;9.18;;;;;;;14.77;100.00;100164.03;4026862;86;21632;-83
2021/10/01 09:08:29;;;;;;;20.62;10.40;;;;;;;15.26;98.89;100156.31;4027649;86;21415;-83
2021/10/01 09:14:41;;;;;;;13.10;8.50;;;;;;;15.89;98.58;100161.67;4031376;86;21042;-83
2021/10/01 09:20:44;;;;;;;9.65;8.00;;;;;;;16.29;97.00;100148.55;4012470;86;21082;-83
2021/10/01 09:26:52;;;;;;;13.15;7.75;;;;;;;16.87;94.98;100134.66;4035918;86;21040;-84
2021/10/01 09:33:11;;;;;;;10.40;7.40;;;;;;;17.40;94.99;100136.20;4031441;86;21056;-86
2021/10/01 09:39:27;;;;;;;12.43;8.35;;;;;;;17.78;93.50;100132.70;4027735;86;21087;-84
2021/10/01 09:45:29;;;;;;;10.63;6.95;;;;;;;18.33;91.96;100133.25;4025520;86;21011;-84
2021/10/01 09:51:31;;;;;;;11.73;7.45;;;;;;;18.81;91.33;100116.86;4023994;86;21080;-86
2021/10/01 09:57:33;;;;;;;8.98;6.95;;;;;;;19.11;88.38;100120.48;4026919;86;21368;-84
2021/10/01 10:03:35;;;;;;;9.38;6.70;;;;;;;19.56;89.06;100119.45;4017966;86;21068;-84
2021/10/01 10:09:39;;;;;;;12.13;7.33;;;;;;;18.97;86.96;100128.29;4030984;86;21618;-83
2021/10/01 10:15:41;;;;;;;10.25;7.95;;;;;;;18.70;83.53;100123.05;4031169;86;21088;-84
2021/10/01 10:21:42;;;;;;;7.45;6.28;;;;;;;18.63;83.66;100110.02;4031794;86;21043;-83
2021/10/01 10:27:45;;;;;;;9.45;6.85;;;;;;;18.97;82.14;100107.48;4025034;86;21067;-84
2021/10/01 10:33:51;;;;;;;8.58;5.85;;;;;;;18.29;82.09;100108.88;4025884;86;21110;-84
2021/10/01 10:39:53;;;;;;;8.28;5.92;;;;;;;18.06;82.07;100104.38;4020766;86;21084;-84
2021/10/01 10:45:56;;;;;;;8.20;5.80;;;;;;;18.13;81.63;100096.08;4022252;86;21560;-83
2021/10/01 10:52:08;;;;;;;8.90;5.40;;;;;;;18.09;80.91;100093.89;4030701;86;21035;-84
2021/10/01 10:58:31;;;;;;;7.65;5.15;;;;;;;18.32;80.98;100091.45;4028063;86;21048;-84
2021/10/01 11:04:35;;;;;;;5.95;3.15;;;;;;;18.33;80.29;100084.73;4020825;86;21087;-84
2021/10/01 11:10:48;;;;;;;5.55;3.50;;;;;;;18.52;78.02;100085.70;4028835;86;21131;-84
2021/10/01 11:17:00;;;;;;;3.95;3.00;;;;;;;18.04;77.78;100079.66;4034016;86;21103;-86
2021/10/01 11:23:13;;;;;;;4.10;2.72;;;;;;;17.56;76.46;100073.76;4027370;86;21603;-84
2021/10/01 11:29:25;;;;;;;4.50;3.08;;;;;;;17.15;76.76;100069.73;4032801;86;21032;-85
2021/10/01 11:35:26;;;;;;;4.42;2.80;;;;;;;16.92;76.78;100058.23;4030951;86;21088;-85
2021/10/01 11:41:28;;;;;;;5.45;2.40;;;;;;;17.06;76.40;100049.38;4028054;86;21086;-83
2021/10/01 11:47:30;;;;;;;3.37;2.83;;;;;;;17.17;75.76;100039.70;4030725;86;21146;-84
2021/10/01 11:53:35;;;;;;;3.70;3.00;;;;;;;17.04;73.70;100032.38;4027159;86;21102;-84
2021/10/01 11:59:58;;;;;;;5.40;3.00;;;;;;;16.84;74.94;100024.83;4028485;86;21052;-84
2021/10/01 12:05:59;;;;;;;5.92;3.17;;;;;;;16.65;74.83;100023.78;4032614;86;21064;-84
2021/10/01 12:12:07;;;;;;;4.50;2.95;;;;;;;16.50;75.15;100013.87;4017954;86;22276;-84
2021/10/01 12:18:31;;;;;;;4.92;3.30;;;;;;;16.46;75.15;100006.17;4021326;86;20993;-83
2021/10/01 12:24:52;;;;;;;5.62;3.83;;;;;;;16.38;74.07;100001.77;4027274;86;22268;-85
2021/10/01 12:31:03;;;;;;;5.08;3.40;;;;;;;16.36;74.63;99993.07;4034805;86;21060;-83
2021/10/01 12:37:10;;;;;;;4.72;3.40;;;;;;;16.39;73.85;99984.80;4021971;86;21175;-84
2021/10/01 12:43:11;;;;;;;4.10;2.83;;;;;;;16.31;73.87;99973.52;4020729;86;21009;-83
2021/10/01 12:49:21;;;;;;;12.13;4.12;;;;;;;16.23;74.63;99973.28;4028325;86;21095;-82
2021/10/01 12:55:25;;;;;;;5.08;3.52;;;;;;;16.09;74.73;99955.27;4024021;86;20991;-83
2021/10/01 13:01:26;;;;;;;6.33;3.02;;;;;;;16.09;74.46;99953.09;4025982;86;21124;-84
2021/10/01 13:07:43;;;;;;;5.03;3.27;;;;;;;16.07;74.70;99938.91;4020108;86;21012;-84
2021/10/01 13:13:44;;;;;;;;;;;;;;;16.06;74.30;99938.68;4035856;86;21394;-84
2021/10/01 13:19:59;;;;;;;5.87;3.40;;;;;;;15.99;74.46;99927.63;4028888;86;20108;-83
2021/10/01 13:26:22;;;;;;;4.30;2.80;;;;;;;15.97;74.85;99916.97;4031637;86;21162;-83
2021/10/01 13:32:23;;;;;;;4.40;2.60;;;;;;;15.93;74.93;99914.77;4025379;86;21035;-83
2021/10/01 13:38:33;;;;;;;4.37;3.20;;;;;;;15.84;74.96;99906.63;4011861;86;21132;-83
2021/10/01 13:44:34;;;;;;;6.50;3.02;;;;;;;15.80;74.93;99898.94;3987958;88;21108;-84
2021/10/01 13:50:35;;;;;;;4.40;2.80;;;;;;;15.85;75.38;99891.06;3990612;88;21837;-83
2021/10/01 13:56:36;;;;;;;5.12;2.50;;;;;;;15.87;75.69;99896.19;3903918;89;21081;-84
2021/10/01 14:02:40;;;;;;;4.03;2.83;;;;;;;15.79;75.47;99882.16;3889254;90;21143;-82
2021/10/01 14:08:41;;;;;;;3.83;2.60;;;;;;;15.69;75.63;99880.34;3888196;89;21071;-83
2021/10/01 14:14:43;;;;;;;4.10;2.50;;;;;;;15.57;75.84;99881.27;3901645;90;21131;-83
2021/10/01 14:20:45;;;;;;;4.05;2.33;;;;;;;15.45;76.05;99875.52;3882978;90;21031;-82
2021/10/01 14:26:48;;;;;;;3.75;2.35;;;;;;;15.31;75.91;99865.75;3890798;90;21138;-83
2021/10/01 14:32:49;;;;;;;3.37;2.35;;;;;;;15.19;76.23;99866.05;3890131;90;21124;-83
2021/10/01 14:38:51;;;;;;;4.50;2.98;;;;;;;15.15;76.62;99865.25;3901167;90;21894;-82
2021/10/01 14:44:53;;;;;;;3.25;2.15;;;;;;;15.09;76.57;99855.75;3918847;89;21025;-83
2021/10/01 14:50:54;;;;;;;6.25;2.70;;;;;;;14.99;76.67;99848.77;4001581;87;21530;-83
2021/10/01 14:56:56;;;;;;;3.65;2.42;;;;;;;14.90;77.03;99837.29;4005995;87;21141;-84
2021/10/01 15:03:03;;;;;;;4.03;2.70;;;;;;;14.83;77.04;99833.89;4003288;87;21480;-83
2021/10/01 15:09:01;;;;;;;3.55;2.85;;;;;;;14.67;77.37;99833.97;4006269;87;21098;-83
2021/10/01 15:15:07;;;;;;;3.77;2.58;;;;;;;14.58;77.79;99835.66;3999976;87;21783;-83
2021/10/01 15:21:07;;;;;;;3.45;2.83;;;;;;;14.52;78.02;99830.30;4009569;87;21031;-83
2021/10/01 15:27:09;;;;;;;5.47;3.40;;;;;;;14.40;78.20;99824.29;4005598;87;21091;-83
2021/10/01 15:33:11;;;;;;;4.72;3.30;;;;;;;14.30;78.38;99827.15;4006366;87;21164;-82
2021/10/01 15:39:12;;;;;;;6.80;3.05;;;;;;;14.14;78.51;99828.73;4015058;86;21497;-83
2021/10/01 15:45:16;;;;;;;3.95;3.20;;;;;;;13.98;79.14;99826.80;4030331;86;21072;-83
2021/10/01 15:51:18;;;;;;;4.20;2.87;;;;;;;13.87;79.33;99820.98;4027500;86;21049;-83
2021/10/01 15:57:19;;;;;;;7.20;3.50;;;;;;;13.74;79.79;99820.45;4035453;86;21027;-83
2021/10/01 16:03:23;;;;;;;6.10;3.35;;;;;;;13.60;80.22;99820.29;4029629;86;21166;-83
2021/10/01 16:09:24;;;;;;;7.05;3.33;;;;;;;13.49;80.43;99818.56;4029324;86;21107;-83
2021/10/01 16:15:26;;;;;;;10.93;6.45;;;;;;;13.32;80.75;99822.69;4043025;86;22153;-83
2021/10/01 16:21:28;;;;;;;25.25;10.15;;;;;;;13.16;81.19;99817.95;4030869;86;21551;-83
2021/10/01 16:27:31;;;;;;;12.88;6.05;;;;;;;13.00;81.36;99818.69;4039310;86;21118;-83
2021/10/01 16:33:32;;;;;;;10.80;5.37;;;;;;;12.82;81.71;99827.81;4027212;86;21079;-83
2021/10/01 16:39:33;;;;;;;10.80;5.70;;;;;;;12.62;81.98;99825.16;4027945;86;21504;-83
2021/10/01 16:45:36;;;;;;;11.10;6.10;;;;;;;12.43;82.30;99823.08;4021035;86;21053;-83
2021/10/01 16:51:38;;;;;;;13.35;6.45;;;;;;;12.26;82.51;99824.34;4026267;86;21077;-83
2021/10/01 16:57:40;;;;;;;11.20;6.50;;;;;;;12.14;83.07;99817.67;4035091;86;21628;-84
2021/10/01 17:03:41;;;;;;;14.70;6.45;;;;;;;11.98;83.34;99821.70;4028516;86;21084;-84
2021/10/01 17:09:42;;;;;;;9.13;5.75;;;;;;;11.81;83.62;99819.39;4028163;86;21067;-83
2021/10/01 17:15:44;;;;;;;11.73;6.55;;;;;;;11.69;84.27;99827.78;4026862;86;21131;-83
2021/10/01 17:21:45;;;;;;;13.18;6.95;;;;;;;11.58;84.55;99817.14;4022774;86;21052;-83
2021/10/01 17:27:47;;;;;;;12.50;7.40;;;;;;;11.42;84.81;99819.16;4025818;86;21494;-83
2021/10/01 17:33:48;;;;;;;13.13;7.95;;;;;;;11.31;85.27;99816.80;4026597;86;21141;-83
2021/10/01 17:39:50;;;;;;;12.50;8.10;;;;;;;11.23;85.55;99810.95;3904087;86;10000321;-83
2021/10/01 17:45:52;;;;;;;19.10;8.30;;;;;;;11.15;86.20;99804.50;4024473;86;21029;-83
2021/10/01 17:51:54;;;;;;;15.18;7.53;;;;;;;11.10;86.77;99797.36;4026925;86;21221;-83
2021/10/01 17:57:55;;;;;;;11.43;7.87;;;;;;;11.13;87.21;99797.23;4018971;86;21040;-83
2021/10/01 18:03:58;;;;;;;11.75;7.40;;;;;;;11.09;87.19;99791.67;4022442;86;21096;-84
2021/10/01 18:10:00;;;;;;;11.22;7.35;;;;;;;11.08;87.80;99792.83;4013830;86;21042;-83
2021/10/01 18:16:03;;;;;;;12.90;7.87;;;;;;;11.08;87.84;99787.92;4023418;86;21085;-84
2021/10/01 18:22:04;;;;;;;13.13;8.80;;;;;;;10.96;87.95;99787.46;4007585;86;21140;-85
2021/10/01 18:28:06;;;;;;;11.73;8.50;;;;;;;10.92;88.00;99788.53;3996836;87;21514;-83
2021/10/01 18:34:09;;;;;;;16.30;9.45;;;;;;;10.70;87.71;99786.47;4003459;87;21035;-84
2021/10/01 18:40:12;;;;;;;12.58;8.18;;;;;;;10.56;88.29;99784.77;3987012;87;21156;-83
2021/10/01 18:46:14;;;;;;;11.60;8.35;;;;;;;10.42;88.21;99790.70;3887738;90;21025;-83
2021/10/01 18:52:17;;;;;;;11.08;6.42;;;;;;;10.38;88.94;99780.83;3904409;90;21891;-83
2021/10/01 18:58:19;;;;;;;9.25;6.92;;;;;;;10.41;89.33;99785.03;3977177;87;21092;-84
2021/10/01 19:04:21;;;;;;;12.90;7.75;;;;;;;10.24;88.84;99783.22;3971057;88;21593;-84
2021/10/01 19:10:24;;;;;;;13.88;9.15;;;;;;;10.12;89.20;99780.55;3962599;88;21078;-83
2021/10/01 19:16:25;;;;;;;18.07;7.50;;;;;;;10.01;89.03;99781.63;3951476;88;21198;-83
2021/10/01 19:22:33;;;;;;;14.90;9.15;;;;;;;9.81;89.28;99777.76;3972439;88;21086;-83
2021/10/01 19:34:39;;;;;;;;;;;;;;;9.55;89.51;99768.69;3979785;88;21101;-83
2021/10/01 19:40:40;;;;;;;12.98;10.70;;;;;;;9.47;90.41;99768.27;3942020;88;20120;-83
2021/10/01 19:46:43;;;;;;;16.85;12.13;;;;;;;9.40;90.09;99756.57;3889333;89;21031;-83
2021/10/01 19:52:46;;;;;;;17.73;12.50;;;;;;;9.27;89.67;99759.71;3914449;89;21068;-83
2021/10/01 19:58:49;;;;;;;14.33;9.78;;;;;;;9.17;90.39;99752.80;3910991;89;21070;-83
2021/10/01 20:04:51;;;;;;;15.98;10.82;;;;;;;9.15;90.97;99751.54;3918831;89;21070;-83
2021/10/01 20:10:53;;;;;;;22.87;11.63;;;;;;;9.12;90.84;99757.14;3917362;89;21093;-83
2021/10/01 20:16:56;;;;;;;18.52;12.47;;;;;;;9.06;90.79;99747.60;3918391;89;21062;-83
2021/10/01 20:48:05;;;;;;;29.48;17.37;;;;;;;8.79;91.62;99713.42;3942410;89;21076;-83
2021/10/01 20:54:08;;;;;;;34.23;17.70;;;;;;;8.78;92.13;99710.48;3941575;89;21088;-82
2021/10/01 21:00:33;;;;;;;53.38;18.57;;;;;;;8.77;92.46;99712.41;3954934;89;21185;-83
2021/10/01 21:35:35;;;;;;;32.48;17.60;;;;;;;8.73;92.47;99704.70;3936443;89;21072;-82
2021/10/01 21:50:32;;;;;;;52.25;14.15;;;;;;;8.34;92.65;99687.72;3940743;89;21092;-83
2021/10/01 21:56:35;;;;;;;35.75;15.58;;;;;;;8.15;92.97;99682.58;3941910;89;21053;-83
2021/10/01 22:09:00;;;;;;;20.72;13.45;;;;;;;8.12;93.52;99671.00;3940137;89;21126;-83
2021/10/01 22:15:13;;;;;;;38.25;14.47;;;;;;;7.92;93.99;99665.31;3935537;89;21074;-83
2021/10/01 22:21:13;;;;;;;23.47;13.15;;;;;;;7.89;94.46;99664.64;3945443;89;21592;-83
2021/10/01 22:27:15;;;;;;;31.60;13.25;;;;;;;7.90;94.76;99660.80;3944293;89;21074;-83
2021/10/01 22:33:16;;;;;;;40.23;12.28;;;;;;;7.88;94.45;99649.98;3939615;89;21132;-83
2021/10/01 22:39:20;;;;;;;56.98;13.45;;;;;;;7.80;94.32;99659.88;3942026;88;21090;-83
2021/10/01 22:45:20;;;;;;;34.08;11.35;;;;;;;7.75;94.77;99656.00;3946824;88;22273;-84
2021/10/01 22:51:23;;;;;;;54.13;12.00;;;;;;;7.71;94.61;99645.57;3951810;88;21616;-83
2021/10/01 22:57:26;;;;;;;18.57;10.72;;;;;;;7.73;95.22;99651.48;3957162;88;22252;-83
2021/10/01 23:03:32;;;;;;;31.40;13.55;;;;;;;7.69;94.80;99649.75;3962690;88;21604;-84
2021/10/01 23:09:36;;;;;;;36.37;13.23;;;;;;;7.53;95.19;99655.08;3966739;88;21064;-84
